KFSM/FSM METAR and TAF weather

Enter ICAO airport designator
Station Type Date Time Source
KFSM METAR 2022/12/05 13:53 UTC NOAA

KFSM 051353Z 07006KT 7SM OVC004 06/06 A2992 RMK AO2 SLP134 T00560056


Station Type Date Time Source
KFSM Decoded METAR 2022/12/05 13:53 UTC NOAA

FORT SMITH REGIONAL AIRPORT, AR, United States (KFSM) 35-20N 94-22W 140M
Dec 05, 2022 - 08:53 AM EST / 2022.12.05 1353 UTC
Wind: from the ENE (070 degrees) at 7 MPH (6 KT):0
Visibility: 7 mile(s):0
Sky conditions: overcast
Temperature: 42.1 F (5.6 C)
Dew Point: 42.1 F (5.6 C)
Relative Humidity: 100%
Pressure (altimeter): 29.92 in. Hg (1013 hPa)
ob: KFSM 051353Z 07006KT 7SM OVC004 06/06 A2992 RMK AO2 SLP134 T00560056
cycle: 14

Station Type Date Time Source
KFSM TAF 2022/12/05 12:24 UTC NOAA

TAF KFSM 051120Z 0512/0612 08006KT 5SM BR OVC005
TEMPO 0512/0516 2SM BR
FM051800 11007KT P6SM OVC009
FM052200 10007KT P6SM BKN022
FM060200 VRB04KT P6SM BKN018
FM060600 VRB04KT 4SM BR OVC008

Example: see airport list